sensor_id;sensor_type;location;lat;lon;timestamp;P1;durP1;ratioP1;P2;durP2;ratioP2
51020;SDS011;38907;45.562;8.856;2023-03-11T00:03:22;2.17;;;1.25;;
51020;SDS011;38907;45.562;8.856;2023-03-11T00:08:26;1.75;;;1.35;;
51020;SDS011;38907;45.562;8.856;2023-03-11T00:13:28;4.93;;;1.40;;
51020;SDS011;38907;45.562;8.856;2023-03-11T00:18:32;1.48;;;1.23;;
51020;SDS011;38907;45.562;8.856;2023-03-11T00:23:33;2.78;;;1.38;;
51020;SDS011;38907;45.562;8.856;2023-03-11T00:28:35;5.22;;;1.55;;
51020;SDS011;38907;45.562;8.856;2023-03-11T00:33:38;2.35;;;1.60;;
51020;SDS011;38907;45.562;8.856;2023-03-11T00:38:40;1.83;;;1.60;;
51020;SDS011;38907;45.562;8.856;2023-03-11T00:43:42;1.95;;;1.25;;
51020;SDS011;38907;45.562;8.856;2023-03-11T00:48:45;3.45;;;1.95;;
51020;SDS011;38907;45.562;8.856;2023-03-11T00:53:47;2.20;;;1.67;;
51020;SDS011;38907;45.562;8.856;2023-03-11T00:58:49;1.58;;;1.23;;
51020;SDS011;38907;45.562;8.856;2023-03-11T01:03:52;1.65;;;1.27;;
51020;SDS011;38907;45.562;8.856;2023-03-11T01:08:54;2.15;;;1.08;;
51020;SDS011;38907;45.562;8.856;2023-03-11T01:13:56;2.58;;;1.13;;
51020;SDS011;38907;45.562;8.856;2023-03-11T01:18:59;1.38;;;0.88;;
51020;SDS011;38907;45.562;8.856;2023-03-11T01:24:01;1.50;;;1.15;;
51020;SDS011;38907;45.562;8.856;2023-03-11T01:29:03;2.10;;;0.95;;
51020;SDS011;38907;45.562;8.856;2023-03-11T01:34:06;1.25;;;1.00;;
51020;SDS011;38907;45.562;8.856;2023-03-11T01:39:08;1.10;;;0.98;;
51020;SDS011;38907;45.562;8.856;2023-03-11T01:44:10;1.55;;;1.02;;
51020;SDS011;38907;45.562;8.856;2023-03-11T01:49:14;0.80;;;0.70;;
51020;SDS011;38907;45.562;8.856;2023-03-11T01:54:17;1.23;;;0.60;;
51020;SDS011;38907;45.562;8.856;2023-03-11T01:59:23;1.70;;;1.17;;
51020;SDS011;38907;45.562;8.856;2023-03-11T02:04:28;2.30;;;1.15;;
51020;SDS011;38907;45.562;8.856;2023-03-11T02:09:33;1.40;;;1.00;;
51020;SDS011;38907;45.562;8.856;2023-03-11T02:14:35;1.75;;;0.77;;
51020;SDS011;38907;45.562;8.856;2023-03-11T02:19:44;1.50;;;0.70;;
51020;SDS011;38907;45.562;8.856;2023-03-11T02:24:56;1.73;;;1.05;;
51020;SDS011;38907;45.562;8.856;2023-03-11T02:30:05;1.65;;;1.00;;
51020;SDS011;38907;45.562;8.856;2023-03-11T02:35:08;1.60;;;0.90;;
51020;SDS011;38907;45.562;8.856;2023-03-11T02:40:29;2.35;;;1.30;;
51020;SDS011;38907;45.562;8.856;2023-03-11T02:45:41;2.60;;;1.10;;
51020;SDS011;38907;45.562;8.856;2023-03-11T02:50:45;2.55;;;0.90;;
51020;SDS011;38907;45.562;8.856;2023-03-11T02:55:47;2.92;;;1.20;;
51020;SDS011;38907;45.562;8.856;2023-03-11T03:00:51;1.83;;;1.20;;
51020;SDS011;38907;45.562;8.856;2023-03-11T03:05:52;2.25;;;1.00;;
51020;SDS011;38907;45.562;8.856;2023-03-11T03:10:54;5.25;;;1.05;;
51020;SDS011;38907;45.562;8.856;2023-03-11T03:15:58;1.42;;;1.05;;
51020;SDS011;38907;45.562;8.856;2023-03-11T03:21:00;1.40;;;1.13;;
51020;SDS011;38907;45.562;8.856;2023-03-11T03:26:02;1.67;;;1.00;;
51020;SDS011;38907;45.562;8.856;2023-03-11T03:31:06;1.98;;;1.00;;
51020;SDS011;38907;45.562;8.856;2023-03-11T03:36:10;3.13;;;1.40;;
51020;SDS011;38907;45.562;8.856;2023-03-11T03:41:13;2.30;;;1.60;;
51020;SDS011;38907;45.562;8.856;2023-03-11T03:46:16;5.15;;;2.22;;
51020;SDS011;38907;45.562;8.856;2023-03-11T03:51:18;3.53;;;2.08;;
51020;SDS011;38907;45.562;8.856;2023-03-11T03:56:20;4.22;;;1.02;;
51020;SDS011;38907;45.562;8.856;2023-03-11T04:01:23;4.55;;;1.30;;
51020;SDS011;38907;45.562;8.856;2023-03-11T04:06:25;1.52;;;0.88;;
51020;SDS011;38907;45.562;8.856;2023-03-11T04:11:27;1.75;;;1.25;;
51020;SDS011;38907;45.562;8.856;2023-03-11T04:16:31;1.45;;;0.80;;
51020;SDS011;38907;45.562;8.856;2023-03-11T04:21:33;2.90;;;1.30;;
51020;SDS011;38907;45.562;8.856;2023-03-11T04:26:34;1.63;;;1.00;;
51020;SDS011;38907;45.562;8.856;2023-03-11T04:31:38;1.95;;;1.20;;
51020;SDS011;38907;45.562;8.856;2023-03-11T04:36:40;1.20;;;1.00;;
51020;SDS011;38907;45.562;8.856;2023-03-11T04:41:42;1.75;;;0.82;;
51020;SDS011;38907;45.562;8.856;2023-03-11T04:46:45;1.58;;;1.10;;
51020;SDS011;38907;45.562;8.856;2023-03-11T04:51:47;2.15;;;1.15;;
51020;SDS011;38907;45.562;8.856;2023-03-11T04:56:49;1.15;;;0.85;;
51020;SDS011;38907;45.562;8.856;2023-03-11T05:01:52;1.33;;;0.98;;
51020;SDS011;38907;45.562;8.856;2023-03-11T05:06:54;1.25;;;0.93;;
51020;SDS011;38907;45.562;8.856;2023-03-11T05:11:56;1.48;;;1.10;;
51020;SDS011;38907;45.562;8.856;2023-03-11T05:16:59;1.73;;;1.08;;
51020;SDS011;38907;45.562;8.856;2023-03-11T05:22:01;1.60;;;1.00;;
51020;SDS011;38907;45.562;8.856;2023-03-11T05:27:04;1.77;;;1.20;;
51020;SDS011;38907;45.562;8.856;2023-03-11T05:32:07;4.88;;;1.63;;
51020;SDS011;38907;45.562;8.856;2023-03-11T05:37:09;1.67;;;1.00;;
51020;SDS011;38907;45.562;8.856;2023-03-11T05:42:12;1.23;;;0.93;;
51020;SDS011;38907;45.562;8.856;2023-03-11T05:47:16;1.15;;;0.93;;
51020;SDS011;38907;45.562;8.856;2023-03-11T05:52:18;2.17;;;0.90;;
51020;SDS011;38907;45.562;8.856;2023-03-11T05:57:20;1.70;;;0.93;;
51020;SDS011;38907;45.562;8.856;2023-03-11T06:02:23;0.82;;;0.80;;
51020;SDS011;38907;45.562;8.856;2023-03-11T06:07:25;1.00;;;0.77;;
51020;SDS011;38907;45.562;8.856;2023-03-11T06:12:27;0.90;;;0.80;;
51020;SDS011;38907;45.562;8.856;2023-03-11T06:17:30;1.77;;;1.15;;
51020;SDS011;38907;45.562;8.856;2023-03-11T06:22:32;1.35;;;1.10;;
51020;SDS011;38907;45.562;8.856;2023-03-11T06:27:34;1.30;;;0.90;;
51020;SDS011;38907;45.562;8.856;2023-03-11T06:32:37;1.42;;;1.00;;
51020;SDS011;38907;45.562;8.856;2023-03-11T06:37:39;1.38;;;0.90;;
51020;SDS011;38907;45.562;8.856;2023-03-11T06:42:41;1.67;;;1.00;;
51020;SDS011;38907;45.562;8.856;2023-03-11T06:47:46;7.20;;;1.17;;
51020;SDS011;38907;45.562;8.856;2023-03-11T06:52:48;4.50;;;0.82;;
51020;SDS011;38907;45.562;8.856;2023-03-11T06:57:50;1.05;;;0.70;;
51020;SDS011;38907;45.562;8.856;2023-03-11T07:02:53;2.92;;;0.98;;
51020;SDS011;38907;45.562;8.856;2023-03-11T07:07:55;1.65;;;1.33;;
51020;SDS011;38907;45.562;8.856;2023-03-11T07:12:57;4.32;;;2.17;;
51020;SDS011;38907;45.562;8.856;2023-03-11T07:18:00;3.50;;;2.35;;
51020;SDS011;38907;45.562;8.856;2023-03-11T07:23:02;5.60;;;3.63;;
51020;SDS011;38907;45.562;8.856;2023-03-11T07:28:04;6.32;;;2.33;;
51020;SDS011;38907;45.562;8.856;2023-03-11T07:33:07;1.52;;;1.20;;
51020;SDS011;38907;45.562;8.856;2023-03-11T07:38:09;1.45;;;0.93;;
51020;SDS011;38907;45.562;8.856;2023-03-11T07:43:11;1.65;;;0.80;;
51020;SDS011;38907;45.562;8.856;2023-03-11T07:48:14;1.45;;;0.80;;
51020;SDS011;38907;45.562;8.856;2023-03-11T07:53:16;1.25;;;0.85;;
51020;SDS011;38907;45.562;8.856;2023-03-11T07:58:18;2.92;;;1.60;;
51020;SDS011;38907;45.562;8.856;2023-03-11T08:03:21;2.70;;;0.70;;
51020;SDS011;38907;45.562;8.856;2023-03-11T08:13:24;0.50;;;0.43;;
51020;SDS011;38907;45.562;8.856;2023-03-11T08:18:28;0.90;;;0.43;;
51020;SDS011;38907;45.562;8.856;2023-03-11T08:23:30;0.88;;;0.50;;
51020;SDS011;38907;45.562;8.856;2023-03-11T08:28:32;0.50;;;0.40;;
51020;SDS011;38907;45.562;8.856;2023-03-11T08:33:35;0.50;;;0.40;;
51020;SDS011;38907;45.562;8.856;2023-03-11T08:38:37;0.57;;;0.40;;
51020;SDS011;38907;45.562;8.856;2023-03-11T08:43:49;0.20;;;0.20;;
51020;SDS011;38907;45.562;8.856;2023-03-11T08:48:53;0.22;;;0.22;;
51020;SDS011;38907;45.562;8.856;2023-03-11T08:53:56;0.60;;;0.32;;
51020;SDS011;38907;45.562;8.856;2023-03-11T08:58:58;0.20;;;0.20;;
51020;SDS011;38907;45.562;8.856;2023-03-11T09:04:01;0.28;;;0.20;;
51020;SDS011;38907;45.562;8.856;2023-03-11T09:09:03;0.90;;;0.60;;
51020;SDS011;38907;45.562;8.856;2023-03-11T09:14:05;1.00;;;0.40;;
51020;SDS011;38907;45.562;8.856;2023-03-11T09:19:08;0.45;;;0.20;;
51020;SDS011;38907;45.562;8.856;2023-03-11T09:29:12;0.20;;;0.20;;
51020;SDS011;38907;45.562;8.856;2023-03-11T09:34:16;1.70;;;0.30;;
51020;SDS011;38907;45.562;8.856;2023-03-11T09:39:18;0.70;;;0.50;;
51020;SDS011;38907;45.562;8.856;2023-03-11T09:44:21;1.30;;;0.52;;
51020;SDS011;38907;45.562;8.856;2023-03-11T09:49:35;0.60;;;0.40;;
51020;SDS011;38907;45.562;8.856;2023-03-11T09:54:50;0.45;;;0.32;;
51020;SDS011;38907;45.562;8.856;2023-03-11T09:59:54;0.30;;;0.30;;
51020;SDS011;38907;45.562;8.856;2023-03-11T10:05:00;0.40;;;0.40;;
51020;SDS011;38907;45.562;8.856;2023-03-11T10:10:11;0.28;;;0.20;;
51020;SDS011;38907;45.562;8.856;2023-03-11T10:15:21;0.35;;;0.30;;
51020;SDS011;38907;45.562;8.856;2023-03-11T10:20:35;0.38;;;0.38;;
51020;SDS011;38907;45.562;8.856;2023-03-11T10:25:46;0.20;;;0.20;;
51020;SDS011;38907;45.562;8.856;2023-03-11T10:30:56;0.57;;;0.30;;
51020;SDS011;38907;45.562;8.856;2023-03-11T10:36:04;0.10;;;0.10;;
51020;SDS011;38907;45.562;8.856;2023-03-11T10:41:12;0.40;;;0.20;;
51020;SDS011;38907;45.562;8.856;2023-03-11T10:46:18;5.57;;;0.20;;
51020;SDS011;38907;45.562;8.856;2023-03-11T10:51:25;2.20;;;0.20;;
51020;SDS011;38907;45.562;8.856;2023-03-11T10:56:36;0.10;;;0.10;;
51020;SDS011;38907;45.562;8.856;2023-03-11T11:01:54;2.42;;;0.20;;
51020;SDS011;38907;45.562;8.856;2023-03-11T11:06:58;0.75;;;0.20;;
51020;SDS011;38907;45.562;8.856;2023-03-11T11:12:21;0.17;;;0.10;;
51020;SDS011;38907;45.562;8.856;2023-03-11T11:17:24;0.10;;;0.10;;
51020;SDS011;38907;45.562;8.856;2023-03-11T11:22:31;0.17;;;0.17;;
51020;SDS011;38907;45.562;8.856;2023-03-11T11:27:33;0.10;;;0.10;;
51020;SDS011;38907;45.562;8.856;2023-03-11T11:32:35;1.42;;;0.20;;
51020;SDS011;38907;45.562;8.856;2023-03-11T11:37:40;0.50;;;0.50;;
51020;SDS011;38907;45.562;8.856;2023-03-11T11:42:47;0.75;;;0.15;;
51020;SDS011;38907;45.562;8.856;2023-03-11T11:47:53;0.70;;;0.20;;
51020;SDS011;38907;45.562;8.856;2023-03-11T11:53:02;0.10;;;0.10;;
51020;SDS011;38907;45.562;8.856;2023-03-11T11:58:12;21.17;;;1.65;;
51020;SDS011;38907;45.562;8.856;2023-03-11T12:03:18;0.40;;;0.28;;
51020;SDS011;38907;45.562;8.856;2023-03-11T12:08:38;0.20;;;0.20;;
51020;SDS011;38907;45.562;8.856;2023-03-11T12:13:48;0.80;;;0.35;;
51020;SDS011;38907;45.562;8.856;2023-03-11T12:19:00;0.43;;;0.22;;
51020;SDS011;38907;45.562;8.856;2023-03-11T12:24:15;0.50;;;0.50;;
51020;SDS011;38907;45.562;8.856;2023-03-11T12:29:30;1.85;;;0.50;;
51020;SDS011;38907;45.562;8.856;2023-03-11T12:34:35;0.10;;;0.10;;
51020;SDS011;38907;45.562;8.856;2023-03-11T12:39:38;0.43;;;0.20;;
51020;SDS011;38907;45.562;8.856;2023-03-11T12:44:41;1.75;;;0.20;;
51020;SDS011;38907;45.562;8.856;2023-03-11T12:49:43;0.93;;;0.70;;
51020;SDS011;38907;45.562;8.856;2023-03-11T12:54:48;0.17;;;0.10;;
51020;SDS011;38907;45.562;8.856;2023-03-11T13:00:44;0.10;;;0.10;;
51020;SDS011;38907;45.562;8.856;2023-03-11T13:05:54;0.10;;;0.10;;
51020;SDS011;38907;45.562;8.856;2023-03-11T13:11:03;0.20;;;0.10;;
51020;SDS011;38907;45.562;8.856;2023-03-11T13:16:35;0.40;;;0.20;;
51020;SDS011;38907;45.562;8.856;2023-03-11T13:21:39;0.10;;;0.10;;
51020;SDS011;38907;45.562;8.856;2023-03-11T13:26:43;0.00;;;0.00;;
51020;SDS011;38907;45.562;8.856;2023-03-11T13:31:53;0.13;;;0.10;;
51020;SDS011;38907;45.562;8.856;2023-03-11T13:37:08;0.00;;;0.00;;
51020;SDS011;38907;45.562;8.856;2023-03-11T13:42:25;0.10;;;0.10;;
51020;SDS011;38907;45.562;8.856;2023-03-11T13:47:29;0.10;;;0.10;;
51020;SDS011;38907;45.562;8.856;2023-03-11T13:52:33;0.10;;;0.10;;
51020;SDS011;38907;45.562;8.856;2023-03-11T13:57:39;0.10;;;0.10;;
51020;SDS011;38907;45.562;8.856;2023-03-11T14:02:50;0.10;;;0.10;;
51020;SDS011;38907;45.562;8.856;2023-03-11T14:07:55;0.17;;;0.13;;
51020;SDS011;38907;45.562;8.856;2023-03-11T14:13:15;0.20;;;0.20;;
51020;SDS011;38907;45.562;8.856;2023-03-11T14:18:24;0.20;;;0.20;;
51020;SDS011;38907;45.562;8.856;2023-03-11T14:23:39;0.10;;;0.10;;
51020;SDS011;38907;45.562;8.856;2023-03-11T14:28:44;1.20;;;0.47;;
51020;SDS011;38907;45.562;8.856;2023-03-11T14:33:55;2.55;;;0.30;;
51020;SDS011;38907;45.562;8.856;2023-03-11T14:39:03;1.65;;;0.30;;
51020;SDS011;38907;45.562;8.856;2023-03-11T14:44:06;8.07;;;0.30;;
51020;SDS011;38907;45.562;8.856;2023-03-11T14:49:11;0.38;;;0.32;;
51020;SDS011;38907;45.562;8.856;2023-03-11T14:54:18;0.20;;;0.13;;
51020;SDS011;38907;45.562;8.856;2023-03-11T14:59:26;0.55;;;0.20;;
51020;SDS011;38907;45.562;8.856;2023-03-11T15:04:31;1.55;;;0.30;;
51020;SDS011;38907;45.562;8.856;2023-03-11T15:09:37;0.20;;;0.10;;
51020;SDS011;38907;45.562;8.856;2023-03-11T15:14:49;0.17;;;0.10;;
51020;SDS011;38907;45.562;8.856;2023-03-11T15:19:51;2.15;;;0.20;;
51020;SDS011;38907;45.562;8.856;2023-03-11T15:24:54;0.35;;;0.20;;
51020;SDS011;38907;45.562;8.856;2023-03-11T15:29:59;5.90;;;0.30;;
51020;SDS011;38907;45.562;8.856;2023-03-11T15:35:11;0.28;;;0.20;;
51020;SDS011;38907;45.562;8.856;2023-03-11T15:40:20;3.92;;;0.10;;
51020;SDS011;38907;45.562;8.856;2023-03-11T15:45:25;0.22;;;0.20;;
51020;SDS011;38907;45.562;8.856;2023-03-11T15:50:27;0.43;;;0.10;;
51020;SDS011;38907;45.562;8.856;2023-03-11T15:55:31;14.63;;;0.73;;
51020;SDS011;38907;45.562;8.856;2023-03-11T16:00:34;5.27;;;0.33;;
51020;SDS011;38907;45.562;8.856;2023-03-11T16:05:37;0.98;;;0.40;;
51020;SDS011;38907;45.562;8.856;2023-03-11T16:10:39;0.10;;;0.10;;
51020;SDS011;38907;45.562;8.856;2023-03-11T16:15:43;0.38;;;0.30;;
51020;SDS011;38907;45.562;8.856;2023-03-11T16:20:47;0.20;;;0.17;;
51020;SDS011;38907;45.562;8.856;2023-03-11T16:25:52;0.70;;;0.30;;
51020;SDS011;38907;45.562;8.856;2023-03-11T16:31:00;0.50;;;0.30;;
51020;SDS011;38907;45.562;8.856;2023-03-11T16:36:03;0.55;;;0.20;;
51020;SDS011;38907;45.562;8.856;2023-03-11T16:41:06;0.20;;;0.20;;
51020;SDS011;38907;45.562;8.856;2023-03-11T16:46:09;1.40;;;0.28;;
51020;SDS011;38907;45.562;8.856;2023-03-11T16:51:11;0.70;;;0.20;;
51020;SDS011;38907;45.562;8.856;2023-03-11T16:56:13;1.48;;;0.40;;
51020;SDS011;38907;45.562;8.856;2023-03-11T17:01:18;4.00;;;1.05;;
51020;SDS011;38907;45.562;8.856;2023-03-11T17:06:21;0.57;;;0.40;;
51020;SDS011;38907;45.562;8.856;2023-03-11T17:11:23;0.68;;;0.10;;
51020;SDS011;38907;45.562;8.856;2023-03-11T17:16:28;0.57;;;0.20;;
51020;SDS011;38907;45.562;8.856;2023-03-11T17:21:30;1.48;;;0.32;;
51020;SDS011;38907;45.562;8.856;2023-03-11T17:26:32;0.63;;;0.30;;
51020;SDS011;38907;45.562;8.856;2023-03-11T17:31:35;0.55;;;0.28;;
51020;SDS011;38907;45.562;8.856;2023-03-11T17:36:37;0.57;;;0.30;;
51020;SDS011;38907;45.562;8.856;2023-03-11T17:41:39;1.97;;;0.30;;
51020;SDS011;38907;45.562;8.856;2023-03-11T17:46:43;0.52;;;0.40;;
51020;SDS011;38907;45.562;8.856;2023-03-11T17:51:44;0.50;;;0.40;;
51020;SDS011;38907;45.562;8.856;2023-03-11T17:56:46;4.05;;;0.40;;
51020;SDS011;38907;45.562;8.856;2023-03-11T18:01:50;4.20;;;0.50;;
51020;SDS011;38907;45.562;8.856;2023-03-11T18:06:52;0.32;;;0.32;;
51020;SDS011;38907;45.562;8.856;2023-03-11T18:11:54;0.60;;;0.30;;
51020;SDS011;38907;45.562;8.856;2023-03-11T18:16:57;0.82;;;0.60;;
51020;SDS011;38907;45.562;8.856;2023-03-11T18:21:59;0.80;;;0.60;;
51020;SDS011;38907;45.562;8.856;2023-03-11T18:27:01;2.90;;;0.88;;
51020;SDS011;38907;45.562;8.856;2023-03-11T18:32:04;1.85;;;1.20;;
51020;SDS011;38907;45.562;8.856;2023-03-11T18:37:06;1.95;;;1.08;;
51020;SDS011;38907;45.562;8.856;2023-03-11T18:42:08;5.03;;;1.00;;
51020;SDS011;38907;45.562;8.856;2023-03-11T18:47:11;1.55;;;1.13;;
51020;SDS011;38907;45.562;8.856;2023-03-11T18:52:13;5.38;;;1.20;;
51020;SDS011;38907;45.562;8.856;2023-03-11T18:57:15;2.58;;;1.05;;
51020;SDS011;38907;45.562;8.856;2023-03-11T19:02:19;2.13;;;0.90;;
51020;SDS011;38907;45.562;8.856;2023-03-11T19:07:20;1.65;;;1.20;;
51020;SDS011;38907;45.562;8.856;2023-03-11T19:12:23;1.90;;;0.98;;
51020;SDS011;38907;45.562;8.856;2023-03-11T19:17:29;2.58;;;1.00;;
51020;SDS011;38907;45.562;8.856;2023-03-11T19:22:32;4.25;;;1.20;;
51020;SDS011;38907;45.562;8.856;2023-03-11T19:27:33;7.03;;;3.53;;
51020;SDS011;38907;45.562;8.856;2023-03-11T19:32:40;4.80;;;2.50;;
51020;SDS011;38907;45.562;8.856;2023-03-11T19:37:42;1.77;;;1.33;;
51020;SDS011;38907;45.562;8.856;2023-03-11T19:42:44;2.33;;;1.05;;
51020;SDS011;38907;45.562;8.856;2023-03-11T19:47:47;1.73;;;0.70;;
51020;SDS011;38907;45.562;8.856;2023-03-11T19:52:50;0.70;;;0.60;;
51020;SDS011;38907;45.562;8.856;2023-03-11T19:57:52;0.80;;;0.60;;
51020;SDS011;38907;45.562;8.856;2023-03-11T20:02:56;0.73;;;0.70;;
51020;SDS011;38907;45.562;8.856;2023-03-11T20:07:57;0.90;;;0.63;;
51020;SDS011;38907;45.562;8.856;2023-03-11T20:12:59;1.17;;;0.75;;
51020;SDS011;38907;45.562;8.856;2023-03-11T20:18:03;0.80;;;0.60;;
51020;SDS011;38907;45.562;8.856;2023-03-11T20:23:05;0.88;;;0.50;;
51020;SDS011;38907;45.562;8.856;2023-03-11T20:28:07;0.98;;;0.60;;
51020;SDS011;38907;45.562;8.856;2023-03-11T20:33:10;0.80;;;0.63;;
51020;SDS011;38907;45.562;8.856;2023-03-11T20:43:13;0.82;;;0.75;;
51020;SDS011;38907;45.562;8.856;2023-03-11T20:48:16;1.40;;;0.85;;
51020;SDS011;38907;45.562;8.856;2023-03-11T20:58:20;2.13;;;1.40;;
51020;SDS011;38907;45.562;8.856;2023-03-11T21:03:23;2.30;;;1.60;;
51020;SDS011;38907;45.562;8.856;2023-03-11T21:13:27;2.30;;;1.50;;
51020;SDS011;38907;45.562;8.856;2023-03-11T21:18:31;4.50;;;1.75;;
51020;SDS011;38907;45.562;8.856;2023-03-11T21:23:33;1.42;;;1.10;;
51020;SDS011;38907;45.562;8.856;2023-03-11T21:28:35;1.25;;;1.02;;
51020;SDS011;38907;45.562;8.856;2023-03-11T21:33:40;2.13;;;1.30;;
51020;SDS011;38907;45.562;8.856;2023-03-11T21:38:42;1.73;;;0.90;;
51020;SDS011;38907;45.562;8.856;2023-03-11T21:43:45;2.70;;;2.50;;
51020;SDS011;38907;45.562;8.856;2023-03-11T21:48:49;3.92;;;3.53;;
51020;SDS011;38907;45.562;8.856;2023-03-11T21:58:52;1.20;;;0.63;;
51020;SDS011;38907;45.562;8.856;2023-03-11T22:03:55;0.70;;;0.60;;
51020;SDS011;38907;45.562;8.856;2023-03-11T22:13:59;2.95;;;2.10;;
51020;SDS011;38907;45.562;8.856;2023-03-11T22:19:02;3.85;;;3.53;;
51020;SDS011;38907;45.562;8.856;2023-03-11T22:24:07;1.50;;;1.20;;
51020;SDS011;38907;45.562;8.856;2023-03-11T22:29:10;1.55;;;1.35;;
51020;SDS011;38907;45.562;8.856;2023-03-11T22:34:13;1.38;;;1.00;;
51020;SDS011;38907;45.562;8.856;2023-03-11T22:44:16;1.05;;;0.70;;
51020;SDS011;38907;45.562;8.856;2023-03-11T22:49:19;0.60;;;0.60;;
51020;SDS011;38907;45.562;8.856;2023-03-11T22:54:21;5.53;;;3.53;;
51020;SDS011;38907;45.562;8.856;2023-03-11T22:59:23;18.38;;;7.78;;
51020;SDS011;38907;45.562;8.856;2023-03-11T23:04:30;24.70;;;12.55;;
51020;SDS011;38907;45.562;8.856;2023-03-11T23:09:32;27.42;;;15.93;;
51020;SDS011;38907;45.562;8.856;2023-03-11T23:14:34;38.08;;;18.23;;
51020;SDS011;38907;45.562;8.856;2023-03-11T23:19:38;38.92;;;20.58;;
51020;SDS011;38907;45.562;8.856;2023-03-11T23:24:39;43.75;;;22.65;;
51020;SDS011;38907;45.562;8.856;2023-03-11T23:29:41;47.80;;;25.92;;
51020;SDS011;38907;45.562;8.856;2023-03-11T23:34:44;49.63;;;25.10;;
51020;SDS011;38907;45.562;8.856;2023-03-11T23:39:46;52.35;;;27.60;;
51020;SDS011;38907;45.562;8.856;2023-03-11T23:44:48;49.00;;;27.80;;
51020;SDS011;38907;45.562;8.856;2023-03-11T23:49:51;51.42;;;28.38;;
51020;SDS011;38907;45.562;8.856;2023-03-11T23:54:53;50.78;;;28.33;;
51020;SDS011;38907;45.562;8.856;2023-03-11T23:59:55;51.03;;;27.80;;
